createdAt,value
2023-04-08T00:02:04.213Z,5.00
2023-04-08T00:07:07.453Z,5.06
2023-04-08T00:12:09.982Z,5.03
2023-04-08T00:17:12.290Z,5.00
2023-04-08T00:22:14.561Z,4.92
2023-04-08T00:27:17.044Z,4.91
2023-04-08T00:32:19.313Z,4.83
2023-04-08T00:37:21.408Z,4.80
2023-04-08T00:42:23.576Z,4.75
2023-04-08T00:47:26.089Z,4.69
2023-04-08T00:52:28.282Z,4.65
2023-04-08T00:57:30.451Z,4.60
2023-04-08T01:02:58.761Z,4.72
2023-04-08T01:08:05.464Z,4.54
2023-04-08T01:13:10.363Z,4.49
2023-04-08T01:18:14.488Z,4.42
2023-04-08T01:23:38.032Z,4.47
2023-04-08T01:28:41.469Z,4.14
2023-04-08T01:33:44.953Z,4.23
2023-04-08T01:38:48.854Z,4.22
2023-04-08T01:43:52.595Z,4.10
2023-04-08T01:48:56.430Z,4.11
2023-04-08T01:53:58.750Z,3.97
2023-04-08T01:59:03.504Z,3.96
2023-04-08T02:04:05.701Z,3.89
2023-04-08T02:09:08.519Z,3.81
2023-04-08T02:14:12.456Z,3.77
2023-04-08T02:19:31.595Z,3.84
2023-04-08T02:24:36.183Z,3.72
2023-04-08T02:29:40.911Z,3.64
2023-04-08T02:34:44.561Z,3.65
2023-04-08T02:39:46.823Z,3.60
2023-04-08T02:44:49.258Z,3.60
2023-04-08T02:49:53.404Z,3.63
2023-04-08T02:54:55.504Z,3.50
2023-04-08T02:59:57.632Z,3.61
2023-04-08T03:04:59.854Z,3.65
2023-04-08T03:10:02.936Z,3.56
2023-04-08T03:15:06.332Z,3.71
2023-04-08T03:20:09.079Z,3.68
2023-04-08T03:25:11.872Z,3.59
2023-04-08T03:30:15.573Z,3.74
2023-04-08T03:35:19.255Z,3.90
2023-04-08T03:40:21.487Z,3.94
2023-04-08T03:45:23.738Z,4.01
2023-04-08T03:50:26.160Z,4.07
2023-04-08T03:55:28.254Z,4.15
2023-04-08T04:00:30.859Z,4.19
2023-04-08T04:05:32.903Z,4.27
2023-04-08T04:10:36.134Z,4.38
2023-04-08T04:15:40.130Z,4.49
2023-04-08T04:20:42.988Z,4.53
2023-04-08T04:25:45.262Z,4.49
2023-04-08T04:30:47.442Z,4.66
2023-04-08T04:35:49.704Z,4.83
2023-04-08T04:40:51.817Z,4.96
2023-04-08T04:45:53.825Z,5.13
2023-04-08T04:50:56.795Z,5.36
2023-04-08T04:56:01.367Z,5.63
2023-04-08T05:01:03.533Z,5.93
2023-04-08T05:06:06.119Z,6.33
2023-04-08T05:11:11.575Z,7.60
2023-04-08T05:16:14.232Z,8.67
2023-04-08T05:21:16.429Z,9.51
2023-04-08T05:26:20.244Z,11.07
2023-04-08T05:31:22.609Z,11.36
2023-04-08T05:36:24.743Z,12.26
2023-04-08T05:41:26.765Z,14.08
2023-04-08T05:46:28.900Z,14.70
2023-04-08T05:51:32.081Z,15.69
2023-04-08T05:56:35.019Z,16.62
2023-04-08T06:01:37.394Z,17.43
2023-04-08T06:06:40.645Z,18.13
2023-04-08T06:11:43.079Z,19.18
2023-04-08T06:16:45.276Z,19.84
2023-04-08T06:21:47.538Z,21.17
2023-04-08T06:26:50.082Z,21.69
2023-04-08T06:31:53.036Z,22.81
2023-04-08T06:36:55.403Z,23.59
2023-04-08T06:41:58.259Z,23.34
2023-04-08T06:47:10.936Z,23.01
2023-04-08T06:52:14.785Z,23.03
2023-04-08T06:57:17.279Z,24.34
2023-04-08T07:02:19.839Z,26.09
2023-04-08T07:07:24.265Z,27.53
2023-04-08T07:12:26.329Z,28.16
2023-04-08T07:17:28.518Z,29.35
2023-04-08T07:22:30.608Z,30.06
2023-04-08T07:27:35.032Z,30.68
2023-04-08T07:32:37.283Z,32.11
2023-04-08T07:37:39.387Z,33.35
2023-04-08T07:42:41.704Z,34.67
2023-04-08T07:47:44.685Z,35.62
2023-04-08T07:52:46.816Z,35.39
2023-04-08T07:57:49.021Z,35.75
2023-04-08T08:02:51.410Z,35.60
2023-04-08T08:07:53.532Z,34.36
2023-04-08T08:12:55.773Z,31.52
2023-04-08T08:17:57.950Z,30.84
2023-04-08T08:23:00.118Z,30.26
2023-04-08T08:28:02.382Z,29.28
2023-04-08T08:33:04.609Z,26.60
2023-04-08T08:38:07.699Z,25.09
2023-04-08T08:43:10.192Z,24.82
2023-04-08T08:48:12.387Z,25.78
2023-04-08T08:53:14.481Z,26.78
2023-04-08T08:58:16.612Z,27.22
2023-04-08T09:03:21.843Z,27.38
2023-04-08T09:08:37.777Z,27.18
2023-04-08T09:13:40.440Z,26.43
2023-04-08T09:18:44.762Z,28.73
2023-04-08T09:23:48.985Z,30.03
2023-04-08T09:29:14.388Z,30.89
2023-04-08T09:34:27.542Z,31.65
2023-04-08T09:39:31.076Z,30.28
2023-04-08T09:44:34.697Z,29.94
2023-04-08T09:49:55.570Z,31.24
2023-04-08T09:55:06.802Z,32.21
2023-04-08T10:00:13.136Z,31.48
2023-04-08T10:05:18.646Z,31.78
2023-04-08T10:10:21.309Z,30.35
2023-04-08T10:15:27.159Z,30.40
2023-04-08T10:20:38.079Z,30.75
2023-04-08T10:25:41.785Z,30.18
2023-04-08T10:30:48.638Z,29.95
2023-04-08T10:35:55.120Z,31.13
2023-04-08T10:40:57.271Z,31.37
2023-04-08T10:45:59.387Z,30.29
2023-04-08T10:51:06.345Z,29.73
2023-04-08T10:56:15.233Z,29.55
2023-04-08T11:01:17.752Z,29.31
2023-04-08T11:06:19.981Z,29.07
2023-04-08T11:11:22.893Z,30.57
2023-04-08T11:16:28.089Z,31.21
2023-04-08T11:21:31.793Z,30.31
2023-04-08T11:26:34.578Z,29.49
2023-04-08T11:31:37.011Z,30.05
2023-04-08T11:36:43.055Z,31.44
2023-04-08T11:41:45.152Z,30.56
2023-04-08T11:46:57.391Z,30.52
2023-04-08T11:52:00.497Z,28.55
2023-04-08T11:57:03.217Z,27.45
2023-04-08T12:02:06.109Z,26.06
2023-04-08T12:07:08.215Z,25.66
2023-04-08T12:12:10.419Z,26.43
2023-04-08T12:17:12.756Z,26.89
2023-04-08T12:22:14.919Z,25.72
2023-04-08T12:27:17.175Z,25.28
2023-04-08T12:32:19.455Z,26.15
2023-04-08T12:37:21.842Z,27.87
2023-04-08T12:42:23.904Z,28.03
2023-04-08T12:47:26.434Z,27.22
2023-04-08T12:52:28.584Z,26.69
2023-04-08T12:57:32.138Z,26.80
2023-04-08T13:02:34.324Z,26.99
2023-04-08T13:07:36.671Z,26.60
2023-04-08T13:12:40.360Z,25.11
2023-04-08T13:17:42.523Z,23.39
2023-04-08T13:22:44.660Z,21.80
2023-04-08T13:27:46.880Z,20.82
2023-04-08T13:32:49.191Z,20.26
2023-04-08T13:37:51.470Z,20.79
2023-04-08T13:42:53.685Z,21.13
2023-04-08T13:47:56.911Z,20.77
2023-04-08T13:52:59.120Z,20.20
2023-04-08T13:58:02.424Z,19.88
2023-04-08T14:03:05.929Z,19.50
2023-04-08T14:08:09.087Z,19.15
2023-04-08T14:13:11.225Z,18.56
2023-04-08T14:18:13.541Z,18.25
2023-04-08T14:23:17.017Z,17.77
2023-04-08T14:28:19.121Z,17.64
2023-04-08T14:33:21.231Z,17.51
2023-04-08T14:38:23.307Z,17.24
2023-04-08T14:43:25.667Z,16.91
2023-04-08T14:48:30.578Z,16.61
2023-04-08T14:53:33.644Z,16.37
2023-04-08T14:58:36.134Z,16.17
2023-04-08T15:03:38.507Z,16.13
2023-04-08T15:08:40.842Z,15.98
2023-04-08T15:13:42.754Z,16.45
2023-04-08T15:18:44.985Z,15.90
2023-04-08T15:23:47.191Z,15.70
2023-04-08T15:28:49.639Z,15.58
2023-04-08T15:33:52.453Z,15.46
2023-04-08T15:38:54.771Z,15.37
2023-04-08T15:43:57.169Z,15.27
2023-04-08T15:49:00.859Z,15.18
2023-04-08T15:54:03.731Z,15.06
2023-04-08T15:59:05.870Z,14.90
2023-04-08T16:04:08.235Z,14.71
2023-04-08T16:09:11.299Z,14.57
2023-04-08T16:14:13.401Z,14.44
2023-04-08T16:19:15.422Z,14.83
2023-04-08T16:24:20.717Z,14.28
2023-04-08T16:29:23.034Z,14.00
2023-04-08T16:34:25.253Z,13.98
2023-04-08T16:39:27.990Z,13.91
2023-04-08T16:44:30.081Z,13.82
2023-04-08T16:49:32.243Z,13.74
2023-04-08T16:54:34.257Z,14.14
2023-04-08T16:59:36.397Z,13.65
2023-04-08T17:04:38.513Z,13.56
2023-04-08T17:09:40.639Z,13.47
2023-04-08T17:14:42.786Z,13.44
2023-04-08T17:19:44.992Z,13.36
2023-04-08T17:24:48.193Z,13.77
2023-04-08T17:29:56.443Z,13.33
2023-04-08T17:34:58.563Z,13.22
2023-04-08T17:40:00.579Z,13.60
2023-04-08T17:45:02.844Z,13.17
2023-04-08T17:50:06.669Z,13.06
2023-04-08T17:55:09.340Z,13.01
2023-04-08T18:00:11.789Z,12.96
2023-04-08T18:05:14.466Z,12.94
2023-04-08T18:10:17.380Z,13.34
2023-04-08T18:15:19.599Z,12.90
2023-04-08T18:20:22.391Z,12.85
2023-04-08T18:25:27.647Z,12.77
2023-04-08T18:30:30.425Z,12.72
2023-04-08T18:35:33.628Z,12.69
2023-04-08T18:40:35.790Z,12.60
2023-04-08T18:45:38.000Z,12.55
2023-04-08T18:50:40.481Z,12.54
2023-04-08T18:55:44.792Z,12.41
2023-04-08T19:00:46.902Z,12.32
2023-04-08T19:05:49.264Z,12.71
2023-04-08T19:10:51.259Z,12.23
2023-04-08T19:15:53.330Z,12.12
2023-04-08T19:20:55.779Z,12.50
2023-04-08T19:25:57.879Z,12.51
2023-04-08T19:31:01.028Z,12.04
2023-04-08T19:36:03.619Z,11.94
2023-04-08T19:41:05.925Z,11.89
2023-04-08T19:46:08.791Z,11.86
2023-04-08T19:51:17.616Z,11.89
2023-04-08T19:56:20.011Z,11.70
2023-04-08T20:01:22.386Z,11.66
2023-04-08T20:06:24.517Z,11.62
2023-04-08T20:11:26.692Z,11.60
2023-04-08T20:16:28.721Z,12.03
2023-04-08T20:21:30.841Z,11.66
2023-04-08T20:26:32.828Z,12.02
2023-04-08T20:31:35.005Z,11.60
2023-04-08T20:36:38.166Z,11.49
2023-04-08T20:41:40.297Z,11.41
2023-04-08T20:46:42.851Z,11.40
2023-04-08T20:51:47.934Z,11.44
2023-04-08T20:56:50.031Z,11.36
2023-04-08T21:01:53.981Z,11.31
2023-04-08T21:06:56.152Z,11.27
2023-04-08T21:11:58.294Z,11.21
2023-04-08T21:17:00.411Z,11.59
2023-04-08T21:22:02.829Z,11.12
2023-04-08T21:27:04.964Z,11.02
2023-04-08T21:32:07.443Z,11.36
2023-04-08T21:37:09.661Z,10.88
2023-04-08T21:42:11.558Z,11.22
2023-04-08T21:47:13.681Z,10.78
2023-04-08T21:52:15.696Z,11.09
2023-04-08T21:57:17.971Z,10.67
2023-04-08T22:02:20.118Z,10.57
2023-04-08T22:07:22.243Z,10.52
2023-04-08T22:12:24.421Z,10.44
2023-04-08T22:17:27.187Z,10.35
2023-04-08T22:22:29.234Z,10.34
2023-04-08T22:27:32.133Z,10.32
2023-04-08T22:32:34.325Z,10.28
2023-04-08T22:37:36.743Z,10.22
2023-04-08T22:42:39.234Z,10.24
2023-04-08T22:47:41.328Z,10.20
2023-04-08T22:52:43.494Z,10.11
2023-04-08T22:57:45.455Z,10.53
2023-04-08T23:02:47.718Z,10.14
2023-04-08T23:07:49.879Z,10.05
2023-04-08T23:12:52.113Z,9.96
2023-04-08T23:17:54.282Z,9.94
2023-04-08T23:22:56.764Z,9.92
2023-04-08T23:27:58.966Z,9.86
2023-04-08T23:33:01.376Z,9.76
2023-04-08T23:38:03.456Z,9.71
2023-04-08T23:43:05.812Z,9.70
2023-04-08T23:48:09.602Z,9.68
2023-04-08T23:53:12.363Z,9.63
2023-04-08T23:58:14.300Z,10.04
